createdAt,value
2023-04-15T00:03:53.908Z,12.79
2023-04-15T00:08:58.153Z,12.33
2023-04-15T00:14:03.727Z,11.94
2023-04-15T00:19:07.674Z,11.58
2023-04-15T00:24:11.766Z,12.30
2023-04-15T00:29:17.191Z,11.69
2023-04-15T00:34:21.321Z,12.69
2023-04-15T00:39:25.270Z,12.86
2023-04-15T00:44:30.582Z,12.40
2023-04-15T00:49:34.551Z,12.02
2023-04-15T00:54:39.108Z,11.67
2023-04-15T00:59:44.501Z,10.17
2023-04-15T01:04:49.739Z,10.78
2023-04-15T01:09:54.129Z,11.48
2023-04-15T01:15:00.866Z,11.43
2023-04-15T01:20:05.993Z,12.07
2023-04-15T01:25:13.312Z,11.85
2023-04-15T01:30:18.662Z,11.77
2023-04-15T01:35:24.192Z,11.65
2023-04-15T01:40:28.785Z,10.55
2023-04-15T01:45:34.225Z,9.94
2023-04-15T01:50:41.452Z,9.92
2023-04-15T01:55:45.753Z,10.10
2023-04-15T02:00:53.746Z,10.48
2023-04-15T02:05:57.812Z,11.20
2023-04-15T02:11:02.351Z,11.10
2023-04-15T02:16:17.225Z,10.77
2023-04-15T02:21:21.654Z,10.58
2023-04-15T02:26:26.182Z,9.71
2023-04-15T02:31:37.043Z,9.59
2023-04-15T02:36:41.104Z,9.44
2023-04-15T02:41:47.751Z,8.99
2023-04-15T02:46:54.966Z,9.85
2023-04-15T02:52:00.179Z,9.39
2023-04-15T02:57:06.873Z,9.52
2023-04-15T03:02:13.011Z,9.15
2023-04-15T03:07:17.245Z,9.50
2023-04-15T03:12:21.656Z,9.59
2023-04-15T03:17:28.507Z,9.90
2023-04-15T03:22:33.833Z,9.80
2023-04-15T03:27:37.884Z,9.43
2023-04-15T03:32:43.276Z,9.46
2023-04-15T03:37:49.248Z,9.58
2023-04-15T03:42:52.985Z,9.34
2023-04-15T03:48:07.323Z,9.36
2023-04-15T03:53:20.495Z,8.96
2023-04-15T03:58:24.545Z,9.61
2023-04-15T04:03:30.324Z,10.34
2023-04-15T04:08:34.163Z,10.01
2023-04-15T04:13:38.259Z,10.00
2023-04-15T04:18:43.504Z,10.80
2023-04-15T04:23:47.441Z,9.91
2023-04-15T04:28:51.695Z,10.65
2023-04-15T04:33:57.403Z,10.10
2023-04-15T04:39:01.560Z,9.98
2023-04-15T04:44:05.833Z,9.92
2023-04-15T04:49:11.703Z,10.69
2023-04-15T04:54:15.492Z,10.65
2023-04-15T04:59:19.679Z,10.62
2023-04-15T05:04:25.488Z,9.90
2023-04-15T05:09:32.280Z,9.39
2023-04-15T05:14:38.727Z,9.52
2023-04-15T05:19:44.083Z,9.34
2023-04-15T05:24:48.105Z,9.02
2023-04-15T05:29:52.134Z,9.81
2023-04-15T05:34:57.507Z,9.93
2023-04-15T05:40:01.573Z,9.71
2023-04-15T05:45:09.149Z,9.51
2023-04-15T05:50:14.466Z,9.82
2023-04-15T05:55:18.459Z,9.72
2023-04-15T06:00:22.495Z,9.98
2023-04-15T06:05:27.973Z,10.10
2023-04-15T06:10:36.475Z,10.46
2023-04-15T06:15:41.255Z,11.70
2023-04-15T06:20:46.528Z,10.95
2023-04-15T06:25:50.378Z,11.28
2023-04-15T06:30:54.740Z,12.60
2023-04-15T06:36:00.603Z,12.19
2023-04-15T06:41:05.446Z,11.99
2023-04-15T06:46:09.562Z,13.09
2023-04-15T06:51:15.130Z,13.93
2023-04-15T06:56:19.125Z,14.11
2023-04-15T07:01:23.354Z,13.69
2023-04-15T07:06:29.264Z,13.23
2023-04-15T07:11:33.421Z,13.65
2023-04-15T07:16:37.523Z,13.15
2023-04-15T07:21:43.052Z,13.88
2023-04-15T07:26:47.889Z,14.14
2023-04-15T07:31:51.888Z,14.66
2023-04-15T07:36:58.136Z,14.11
2023-04-15T07:42:02.562Z,14.54
2023-04-15T07:47:15.490Z,14.24
2023-04-15T07:52:21.766Z,14.37
2023-04-15T07:57:26.114Z,14.03
2023-04-15T08:02:30.700Z,13.86
2023-04-15T08:07:36.659Z,14.07
2023-04-15T08:12:40.490Z,14.57
2023-04-15T08:17:44.752Z,14.47
2023-04-15T08:22:52.276Z,14.04
2023-04-15T08:27:57.682Z,14.46
2023-04-15T08:33:02.379Z,15.14
2023-04-15T08:38:07.860Z,15.39
2023-04-15T08:43:14.459Z,16.39
2023-04-15T08:48:19.289Z,16.33
2023-04-15T08:53:25.833Z,15.95
2023-04-15T08:58:30.477Z,15.09
2023-04-15T09:03:36.074Z,15.83
2023-04-15T09:08:41.736Z,15.94
2023-04-15T09:13:49.024Z,15.77
2023-04-15T09:18:53.217Z,15.29
2023-04-15T09:24:00.738Z,14.39
2023-04-15T09:29:09.331Z,16.43
2023-04-15T09:34:13.669Z,17.03
2023-04-15T09:39:19.480Z,16.53
2023-04-15T09:44:24.684Z,16.92
2023-04-15T09:49:28.807Z,17.49
2023-04-15T09:54:39.692Z,17.77
2023-04-15T09:59:43.693Z,16.98
2023-04-15T10:04:51.047Z,17.63
2023-04-15T10:09:57.307Z,17.52
2023-04-15T10:15:06.147Z,17.68
2023-04-15T10:20:13.083Z,18.02
2023-04-15T10:25:19.569Z,18.30
2023-04-15T10:30:24.582Z,19.20
2023-04-15T10:35:30.794Z,18.77
2023-04-15T10:40:36.467Z,18.04
2023-04-15T10:45:46.711Z,16.68
2023-04-15T10:50:58.008Z,16.54
2023-04-15T10:56:06.298Z,16.06
2023-04-15T11:01:10.389Z,14.77
2023-04-15T11:06:14.468Z,15.71
2023-04-15T11:11:20.122Z,16.83
2023-04-15T11:16:24.047Z,15.93
2023-04-15T11:21:29.317Z,16.78
2023-04-15T11:26:35.347Z,17.53
2023-04-15T11:31:39.444Z,17.63
2023-04-15T11:36:45.032Z,17.16
2023-04-15T11:41:50.668Z,16.31
2023-04-15T11:46:56.588Z,19.35
2023-04-15T11:52:00.808Z,20.30
2023-04-15T11:57:06.370Z,17.35
2023-04-15T12:02:14.371Z,17.42
2023-04-15T12:07:18.812Z,16.52
2023-04-15T12:12:30.918Z,15.43
2023-04-15T12:17:51.330Z,14.88
2023-04-15T12:23:07.248Z,13.32
2023-04-15T12:28:14.120Z,11.18
2023-04-15T12:33:18.786Z,10.42
2023-04-15T12:38:24.523Z,10.80
2023-04-15T12:43:30.488Z,11.12
2023-04-15T12:48:34.662Z,11.44
2023-04-15T12:53:38.782Z,11.89
2023-04-15T12:58:44.671Z,13.57
2023-04-15T13:03:50.726Z,12.96
2023-04-15T13:08:58.829Z,14.15
2023-04-15T13:14:06.479Z,13.09
2023-04-15T13:19:11.028Z,12.11
2023-04-15T13:24:15.053Z,12.22
2023-04-15T13:29:20.820Z,11.86
2023-04-15T13:34:25.250Z,11.96
2023-04-15T13:39:29.652Z,11.29
2023-04-15T13:44:35.221Z,10.85
2023-04-15T13:49:39.475Z,11.31
2023-04-15T13:54:43.593Z,12.00
2023-04-15T13:59:49.440Z,11.59
2023-04-15T14:04:53.654Z,10.81
2023-04-15T14:09:57.896Z,10.59
2023-04-15T14:15:03.722Z,10.23
2023-04-15T14:20:09.938Z,10.65
2023-04-15T14:25:23.186Z,10.48
2023-04-15T14:30:36.470Z,10.39
2023-04-15T14:35:40.541Z,10.22
2023-04-15T14:40:46.062Z,10.82
2023-04-15T14:45:52.235Z,10.37
2023-04-15T14:50:56.484Z,10.32
2023-04-15T14:56:00.656Z,10.20
2023-04-15T15:01:07.516Z,10.88
2023-04-15T15:06:11.920Z,11.38
2023-04-15T15:11:17.116Z,11.93
2023-04-15T15:16:29.605Z,10.95
2023-04-15T15:21:33.976Z,10.95
2023-04-15T15:26:38.809Z,11.64
2023-04-15T15:31:45.085Z,12.08
2023-04-15T15:36:49.936Z,11.99
2023-04-15T15:41:54.676Z,12.30
2023-04-15T15:47:01.725Z,11.87
2023-04-15T15:52:07.716Z,12.60
2023-04-15T15:57:13.240Z,10.83
2023-04-15T16:02:27.062Z,10.93
2023-04-15T16:07:40.255Z,10.01
2023-04-15T16:12:45.592Z,10.96
2023-04-15T16:17:51.902Z,9.82
2023-04-15T16:22:58.488Z,9.25
2023-04-15T16:28:11.569Z,8.78
2023-04-15T16:33:24.840Z,9.56
2023-04-15T16:38:29.911Z,9.18
2023-04-15T16:43:34.285Z,9.05
2023-04-15T16:48:40.196Z,9.10
2023-04-15T16:53:49.923Z,10.51
2023-04-15T16:58:55.037Z,10.06
2023-04-15T17:04:05.850Z,9.57
2023-04-15T17:09:10.565Z,9.76
2023-04-15T17:14:14.814Z,9.54
2023-04-15T17:19:23.609Z,10.24
2023-04-15T17:24:29.069Z,9.91
2023-04-15T17:29:34.254Z,9.63
2023-04-15T17:34:50.601Z,9.00
2023-04-15T17:39:55.591Z,9.24
2023-04-15T17:44:59.938Z,9.33
2023-04-15T17:50:06.107Z,9.56
2023-04-15T17:55:10.485Z,9.57
2023-04-15T18:00:16.798Z,9.95
2023-04-15T18:05:22.927Z,9.69
2023-04-15T18:10:27.428Z,9.56
2023-04-15T18:15:31.808Z,9.57
2023-04-15T18:20:37.391Z,9.56
2023-04-15T18:25:47.188Z,9.66
2023-04-15T18:30:51.616Z,9.82
2023-04-15T18:35:57.771Z,9.38
2023-04-15T18:41:02.600Z,9.73
2023-04-15T18:46:10.233Z,9.81
2023-04-15T18:51:17.149Z,9.82
2023-04-15T18:56:21.589Z,9.48
2023-04-15T19:01:26.590Z,9.36
2023-04-15T19:06:32.297Z,9.48
2023-04-15T19:11:36.622Z,9.31
2023-04-15T19:16:40.852Z,9.14
2023-04-15T19:21:50.174Z,9.84
2023-04-15T19:26:54.847Z,8.55
2023-04-15T19:31:59.440Z,8.86
2023-04-15T19:37:05.280Z,9.21
2023-04-15T19:42:10.315Z,8.67
2023-04-15T19:47:14.560Z,9.78
2023-04-15T19:52:20.172Z,9.09
2023-04-15T19:57:24.446Z,9.14
2023-04-15T20:02:31.604Z,7.97
2023-04-15T20:07:37.657Z,7.59
2023-04-15T20:12:50.509Z,7.80
2023-04-15T20:17:57.661Z,8.64
2023-04-15T20:23:03.695Z,9.24
2023-04-15T20:28:07.775Z,9.86
2023-04-15T20:33:16.989Z,9.28
2023-04-15T20:38:22.704Z,9.08
2023-04-15T20:43:26.918Z,8.98
2023-04-15T20:48:31.298Z,8.89
2023-04-15T20:53:37.063Z,8.78
2023-04-15T20:58:41.485Z,9.47
2023-04-15T21:03:46.441Z,8.69
2023-04-15T21:08:52.684Z,9.43
2023-04-15T21:13:56.641Z,8.87
2023-04-15T21:19:02.387Z,8.98
2023-04-15T21:24:08.829Z,8.15
2023-04-15T21:29:13.770Z,8.51
2023-04-15T21:34:18.826Z,7.36
2023-04-15T21:39:25.000Z,7.35
2023-04-15T21:44:29.420Z,8.26
2023-04-15T21:49:33.989Z,8.05
2023-04-15T21:54:39.982Z,7.82
2023-04-15T21:59:44.372Z,8.00
2023-04-15T22:04:48.706Z,8.46
2023-04-15T22:09:54.353Z,8.10
2023-04-15T22:14:58.550Z,8.40
2023-04-15T22:20:02.768Z,8.42
2023-04-15T22:25:09.835Z,8.65
2023-04-15T22:30:14.610Z,8.22
2023-04-15T22:35:18.949Z,8.00
2023-04-15T22:40:25.457Z,8.22
2023-04-15T22:45:29.615Z,8.14
2023-04-15T22:50:33.852Z,8.52
2023-04-15T22:55:39.609Z,8.61
2023-04-15T23:00:43.852Z,8.62
2023-04-15T23:05:48.056Z,8.42
2023-04-15T23:10:53.881Z,8.52
2023-04-15T23:15:58.080Z,8.58
2023-04-15T23:21:02.206Z,7.69
2023-04-15T23:26:07.714Z,6.70
2023-04-15T23:31:12.072Z,7.39
2023-04-15T23:36:16.352Z,7.76
2023-04-15T23:41:21.929Z,7.65
2023-04-15T23:46:26.264Z,8.84
2023-04-15T23:51:30.399Z,8.55
2023-04-15T23:56:36.004Z,8.36
